Time;durP1;ratioP1;P1;durP2;ratioP2;P2;SDS_P1;SDS_P2;PMS_P1;PMS_P2;Temp;Humidity;BMP_temperature;BMP_pressure;BME280_temperature;BME280_humidity;BME280_pressure;Samples;Min_cycle;Max_cycle;Signal;HPM_P1;HPM_P2
2021/06/30 00:01:02;;;;;;;18.35;13.88;;;15.50;99.90;;;;;;4976136;28;20423;-82
2021/06/30 00:03:29;;;;;;;22.77;15.20;;;15.50;99.90;;;;;;4975776;28;20069;-81
2021/06/30 00:06:01;;;;;;;18.65;13.00;;;15.50;99.90;;;;;;4968094;28;20046;-79
2021/06/30 00:08:27;;;;;;;21.02;13.68;;;15.60;99.90;;;;;;4975791;28;20522;-81
2021/06/30 00:11:00;;;;;;;16.48;13.10;;;15.50;99.90;;;;;;4965798;28;20055;-79
2021/06/30 00:13:27;;;;;;;27.50;16.38;;;15.60;99.90;;;;;;4974051;28;20047;-84
2021/06/30 00:15:54;;;;;;;23.58;16.25;;;15.70;99.90;;;;;;4945630;28;20183;-82
2021/06/30 00:18:25;;;;;;;25.05;17.08;;;15.80;99.90;;;;;;4969709;28;20050;-82
2021/06/30 00:20:52;;;;;;;28.42;17.20;;;15.80;99.90;;;;;;4971252;28;20081;-81
2021/06/30 00:23:24;;;;;;;28.35;18.17;;;15.80;99.90;;;;;;4949740;28;20086;-82
2021/06/30 00:25:56;;;;;;;37.90;22.02;;;15.70;99.90;;;;;;4943194;28;20046;-82
2021/06/30 00:28:24;;;;;;;39.10;22.60;;;15.80;99.90;;;;;;4975181;28;20087;-82
2021/06/30 00:30:56;;;;;;;43.53;25.77;;;15.90;99.90;;;;;;4955811;28;20054;-81
2021/06/30 00:33:28;;;;;;;53.42;28.38;;;15.90;99.90;;;;;;4948607;28;20046;-82
2021/06/30 00:35:54;;;;;;;48.78;28.85;;;15.90;99.90;;;;;;4955520;28;20046;-80
2021/06/30 00:38:21;;;;;;;59.25;32.10;;;15.90;99.90;;;;;;4954720;28;20058;-82
2021/06/30 00:40:48;;;;;;;56.85;30.45;;;15.90;99.90;;;;;;4986902;28;20042;-82
2021/06/30 00:43:17;;;;;;;68.60;33.97;;;15.90;99.90;;;;;;4985705;28;20484;-83
2021/06/30 00:45:44;;;;;;;63.67;32.72;;;15.90;99.90;;;;;;4972416;28;20054;-80
2021/06/30 00:48:16;;;;;;;70.63;34.75;;;15.90;99.90;;;;;;4947895;28;20042;-84
2021/06/30 00:50:43;;;;;;;71.55;35.22;;;15.90;99.90;;;;;;4957040;28;20058;-83
2021/06/30 00:53:15;;;;;;;55.20;32.00;;;15.90;99.90;;;;;;4967215;28;20081;-82
2021/06/30 00:55:50;;;;;;;56.65;33.88;;;15.90;99.90;;;;;;4969603;28;20047;-83
2021/06/30 00:58:18;;;;;;;64.65;34.95;;;15.90;99.90;;;;;;4970738;28;20110;-81
2021/06/30 01:00:49;;;;;;;67.57;36.72;;;15.90;99.90;;;;;;4986096;28;20104;-82
2021/06/30 01:03:21;;;;;;;81.85;41.25;;;15.90;99.90;;;;;;4958576;28;20046;-81
2021/06/30 01:05:48;;;;;;;94.13;41.95;;;15.90;99.90;;;;;;4958699;28;20050;-82
2021/06/30 01:08:20;;;;;;;88.43;43.08;;;16.00;99.90;;;;;;4989240;28;20047;-80
2021/06/30 01:10:52;;;;;;;83.03;41.35;;;16.10;99.90;;;;;;4977957;28;20058;-82
2021/06/30 01:13:23;;;;;;;101.78;46.55;;;16.10;99.90;;;;;;4969040;28;20043;-80
2021/06/30 01:15:57;;;;;;;99.45;43.65;;;16.10;99.90;;;;;;4960982;28;20046;-83
2021/06/30 01:18:33;;;;;;;96.75;41.45;;;16.10;99.90;;;;;;4962193;28;20046;-81
2021/06/30 01:21:02;;;;;;;90.55;40.28;;;16.20;99.90;;;;;;5007131;28;20046;-81
2021/06/30 01:23:30;;;;;;;98.63;39.40;;;16.00;99.90;;;;;;4982986;28;20054;-81
2021/06/30 01:26:04;;;;;;;95.47;40.95;;;16.00;99.90;;;;;;4989182;28;20116;-81
2021/06/30 01:28:36;;;;;;;92.82;38.63;;;16.10;99.90;;;;;;4978697;28;20054;-82
2021/06/30 01:31:12;;;;;;;88.35;37.90;;;16.10;99.90;;;;;;4945724;28;20055;-82
2021/06/30 01:33:44;;;;;;;78.35;35.33;;;16.10;99.90;;;;;;4956789;28;20494;-81
2021/06/30 01:36:11;;;;;;;70.22;32.00;;;16.10;99.90;;;;;;4965743;28;20101;-82
2021/06/30 01:38:43;;;;;;;67.70;30.85;;;16.10;99.90;;;;;;4968023;28;20118;-80
2021/06/30 01:41:14;;;;;;;61.88;30.90;;;16.20;99.90;;;;;;4980331;28;20066;-80
2021/06/30 01:43:41;;;;;;;64.05;28.85;;;16.20;99.90;;;;;;4966662;28;20101;-83
2021/06/30 01:46:13;;;;;;;66.28;28.92;;;16.20;99.90;;;;;;4979852;28;20062;-80
2021/06/30 01:48:47;;;;;;;68.55;28.60;;;16.10;99.90;;;;;;4989360;28;20050;-83
2021/06/30 01:51:15;;;;;;;74.50;31.70;;;16.10;99.90;;;;;;4945491;28;20042;-81
2021/06/30 01:53:47;;;;;;;82.75;32.78;;;16.10;99.90;;;;;;4983932;28;20300;-83
2021/06/30 01:56:23;;;;;;;89.55;37.20;;;16.10;99.90;;;;;;4973278;28;20035;-80
2021/06/30 01:58:59;;;;;;;90.28;37.75;;;16.10;99.90;;;;;;4977422;28;20026;-79
2021/06/30 02:01:32;;;;;;;99.70;37.55;;;16.10;99.90;;;;;;4972021;28;20038;-82
2021/06/30 02:04:05;;;;;;;100.10;38.92;;;16.10;99.90;;;;;;4980534;28;20033;-81
2021/06/30 02:06:42;;;;;;;97.70;37.60;;;16.10;99.90;;;;;;5000533;28;20042;-83
2021/06/30 02:09:12;;;;;;;88.82;37.22;;;16.10;99.90;;;;;;4970390;28;20046;-80
2021/06/30 02:11:39;;;;;;;76.55;34.08;;;16.20;99.90;;;;;;4979637;28;20054;-81
2021/06/30 02:14:15;;;;;;;86.85;35.83;;;16.20;99.90;;;;;;4986206;28;20046;-80
2021/06/30 02:16:53;;;;;;;101.47;36.53;;;16.20;99.90;;;;;;4948988;28;20039;-79
2021/06/30 02:19:25;;;;;;;78.03;35.22;;;16.20;99.90;;;;;;4970943;28;20044;-81
2021/06/30 02:21:52;;;;;;;72.85;33.08;;;16.30;99.90;;;;;;4978996;28;20074;-80
2021/06/30 02:24:19;;;;;;;81.45;36.47;;;16.20;99.90;;;;;;4954676;28;20062;-82
2021/06/30 02:26:51;;;;;;;69.25;34.97;;;16.30;99.90;;;;;;4955405;28;20061;-82
2021/06/30 02:29:18;;;;;;;73.03;32.83;;;16.20;99.90;;;;;;4972918;28;20066;-81
2021/06/30 02:31:50;;;;;;;82.55;33.97;;;16.30;99.90;;;;;;4964159;28;20137;-80
2021/06/30 02:34:18;;;;;;;83.63;35.45;;;16.20;99.90;;;;;;4994315;28;20070;-83
2021/06/30 02:36:45;;;;;;;81.63;37.05;;;16.20;99.90;;;;;;4960367;28;20311;-85
2021/06/30 02:39:17;;;;;;;94.38;37.13;;;16.10;99.90;;;;;;4954279;28;20038;-83
2021/06/30 02:41:49;;;;;;;90.93;36.25;;;16.10;99.90;;;;;;4975902;28;20131;-82
2021/06/30 02:44:16;;;;;;;78.07;36.03;;;16.20;99.90;;;;;;4991003;28;20097;-82
2021/06/30 02:46:47;;;;;;;101.50;39.58;;;16.20;99.90;;;;;;4962621;28;20043;-83
2021/06/30 02:49:19;;;;;;;91.68;37.28;;;16.20;99.90;;;;;;4967133;28;20055;-83
2021/06/30 02:51:46;;;;;;;87.25;35.20;;;16.20;99.90;;;;;;4950278;28;20552;-80
2021/06/30 02:54:13;;;;;;;81.70;35.75;;;16.20;99.90;;;;;;4974517;28;20145;-81
2021/06/30 02:56:39;;;;;;;89.80;35.13;;;16.20;99.90;;;;;;4956334;28;20101;-79
2021/06/30 02:59:11;;;;;;;79.45;33.80;;;16.20;99.90;;;;;;4966145;28;20035;-81
2021/06/30 03:01:43;;;;;;;83.25;36.00;;;16.20;99.90;;;;;;4956405;28;20070;-81
2021/06/30 03:04:15;;;;;;;88.13;36.08;;;16.30;99.90;;;;;;4970689;28;20109;-81
2021/06/30 03:06:46;;;;;;;90.35;36.65;;;16.30;99.90;;;;;;4953207;28;20042;-79
2021/06/30 03:09:13;;;;;;;102.95;39.17;;;16.30;99.90;;;;;;4975533;28;20065;-80
2021/06/30 03:11:41;;;;;;;96.68;38.15;;;16.30;99.90;;;;;;4974359;28;20046;-79
2021/06/30 03:14:08;;;;;;;80.72;33.38;;;16.30;99.90;;;;;;4941919;28;20047;-82
2021/06/30 03:16:41;;;;;;;62.28;26.67;;;16.10;99.90;;;;;;4960562;28;20406;-83
2021/06/30 03:19:08;;;;;;;68.38;28.33;;;16.00;99.90;;;;;;4947335;28;20053;-83
2021/06/30 03:21:39;;;;;;;61.20;26.63;;;15.90;99.90;;;;;;4958954;28;20038;-81
2021/06/30 03:24:12;;;;;;;62.50;26.83;;;16.00;99.90;;;;;;4960064;28;20234;-85
2021/06/30 03:26:44;;;;;;;65.40;28.30;;;15.90;99.90;;;;;;4960180;28;20595;-82
2021/06/30 03:29:10;;;;;;;77.38;31.35;;;15.80;99.90;;;;;;4974688;28;20062;-83
2021/06/30 03:31:43;;;;;;;69.18;29.08;;;15.70;99.90;;;;;;4981412;28;20054;-80
2021/06/30 03:34:14;;;;;;;71.65;32.28;;;15.70;99.90;;;;;;4971945;28;20051;-79
2021/06/30 03:36:46;;;;;;;91.38;38.10;;;15.60;99.90;;;;;;4974157;28;20101;-81
2021/06/30 03:39:13;;;;;;;92.95;38.38;;;15.60;99.90;;;;;;4981573;28;20129;-81
2021/06/30 03:41:40;;;;;;;105.68;43.35;;;15.50;99.90;;;;;;4958581;28;20042;-81
2021/06/30 03:44:12;;;;;;;97.80;40.88;;;15.50;99.90;;;;;;4953764;28;20050;-80
2021/06/30 03:46:40;;;;;;;114.70;46.70;;;15.50;99.90;;;;;;4973907;28;20051;-82
2021/06/30 03:49:12;;;;;;;115.18;47.53;;;15.50;99.90;;;;;;4962266;28;20042;-82
2021/06/30 03:51:44;;;;;;;122.85;50.38;;;15.50;99.90;;;;;;4965543;28;20331;-84
2021/06/30 03:54:16;;;;;;;122.35;51.28;;;15.60;99.90;;;;;;4972799;28;20516;-79
2021/06/30 03:56:43;;;;;;;113.75;49.13;;;15.50;99.90;;;;;;4981106;28;20121;-80
2021/06/30 03:59:15;;;;;;;120.95;51.88;;;15.50;99.90;;;;;;4971321;28;20046;-81
2021/06/30 04:01:42;;;;;;;119.53;51.63;;;15.50;99.90;;;;;;4954237;28;20050;-81
2021/06/30 04:04:16;;;;;;;122.18;51.08;;;15.50;99.90;;;;;;4990501;28;20046;-80
2021/06/30 04:06:44;;;;;;;141.57;54.97;;;15.50;99.90;;;;;;4963243;28;20093;-83
2021/06/30 04:09:11;;;;;;;143.73;54.35;;;15.40;99.90;;;;;;4990610;28;20129;-83
2021/06/30 04:11:41;;;;;;;121.82;48.47;;;15.40;99.90;;;;;;4945508;28;20097;-81
2021/06/30 04:14:09;;;;;;;125.25;50.95;;;15.40;99.90;;;;;;4965791;28;20134;-80
2021/06/30 04:16:41;;;;;;;145.73;52.80;;;15.50;99.90;;;;;;4938451;28;20569;-82
2021/06/30 04:19:08;;;;;;;109.28;47.47;;;15.50;99.90;;;;;;4985880;28;20050;-80
2021/06/30 04:21:40;;;;;;;106.45;44.03;;;15.40;99.90;;;;;;4981341;28;20043;-81
2021/06/30 04:24:11;;;;;;;93.75;42.13;;;15.30;99.90;;;;;;4982180;28;20101;-83
2021/06/30 04:26:43;;;;;;;77.95;38.35;;;15.40;99.90;;;;;;4966601;28;20810;-83
2021/06/30 04:29:10;;;;;;;70.90;37.50;;;15.30;99.90;;;;;;4965737;28;20540;-82
2021/06/30 04:31:42;;;;;;;62.15;35.25;;;15.40;99.90;;;;;;4954397;28;20051;-83
2021/06/30 04:34:14;;;;;;;54.90;31.27;;;15.30;99.90;;;;;;4990042;28;20042;-82
2021/06/30 04:36:45;;;;;;;50.42;30.92;;;15.20;99.90;;;;;;4963627;28;20054;-83
2021/06/30 04:39:15;;;;;;;51.45;30.85;;;15.20;99.90;;;;;;4959575;28;20050;-79
2021/06/30 04:41:42;;;;;;;48.63;29.52;;;15.20;99.90;;;;;;4975735;28;20411;-81
2021/06/30 04:44:14;;;;;;;63.33;31.15;;;15.20;99.90;;;;;;4952773;28;20054;-80
2021/06/30 04:46:41;;;;;;;50.33;29.35;;;15.10;99.90;;;;;;4974572;28;20110;-83
2021/06/30 04:49:12;;;;;;;44.92;28.98;;;15.10;99.90;;;;;;4956790;28;20050;-81
2021/06/30 04:51:44;;;;;;;48.47;28.63;;;15.20;99.90;;;;;;4977916;28;20050;-81
2021/06/30 04:54:17;;;;;;;48.70;28.35;;;15.20;99.90;;;;;;4948033;28;20046;-79
2021/06/30 04:56:49;;;;;;;46.55;27.30;;;15.20;99.90;;;;;;5002208;28;20401;-81
2021/06/30 04:59:21;;;;;;;50.25;27.85;;;15.10;99.90;;;;;;4954971;28;20042;-83
2021/06/30 05:01:49;;;;;;;51.33;30.63;;;15.10;99.90;;;;;;4969085;28;20050;-81
2021/06/30 05:04:16;;;;;;;58.70;29.95;;;15.10;99.90;;;;;;4982922;28;20050;-81
2021/06/30 05:06:48;;;;;;;54.42;30.15;;;15.10;99.90;;;;;;4968920;28;20764;-82
2021/06/30 05:09:15;;;;;;;56.72;30.02;;;15.00;99.90;;;;;;4957350;28;20109;-81
2021/06/30 05:11:42;;;;;;;57.08;31.75;;;14.90;99.90;;;;;;4973090;28;20050;-82
2021/06/30 05:14:09;;;;;;;73.00;36.67;;;15.00;99.90;;;;;;4949737;28;20112;-82
2021/06/30 05:16:41;;;;;;;62.78;31.52;;;15.00;99.90;;;;;;4971602;28;20729;-83
2021/06/30 05:19:13;;;;;;;57.13;29.20;;;14.90;99.90;;;;;;4962304;28;20070;-81
2021/06/30 05:21:40;;;;;;;48.65;27.38;;;14.90;99.90;;;;;;4957857;28;20352;-83
2021/06/30 05:24:12;;;;;;;54.70;33.03;;;14.90;99.90;;;;;;4973355;28;20101;-81
2021/06/30 05:26:38;;;;;;;65.85;34.38;;;14.90;99.90;;;;;;4988864;28;20046;-81
2021/06/30 05:29:12;;;;;;;61.00;32.80;;;15.10;99.90;;;;;;4973353;28;20054;-82
2021/06/30 05:31:38;;;;;;;59.15;33.15;;;15.20;99.90;;;;;;4970933;28;20042;-79
2021/06/30 05:34:10;;;;;;;59.85;33.03;;;15.20;99.90;;;;;;4954370;28;20047;-78
2021/06/30 05:36:37;;;;;;;51.42;31.50;;;15.20;99.90;;;;;;4974388;28;20132;-81
2021/06/30 05:39:04;;;;;;;51.70;30.90;;;15.10;99.90;;;;;;4987368;28;20154;-83
2021/06/30 05:41:31;;;;;;;60.20;33.10;;;15.10;99.90;;;;;;4956271;28;20053;-82
2021/06/30 05:44:03;;;;;;;52.53;31.15;;;15.10;99.90;;;;;;4982293;28;20425;-82
2021/06/30 05:46:35;;;;;;;37.65;26.10;;;15.20;99.90;;;;;;4943430;28;20089;-81
2021/06/30 05:49:08;;;;;;;45.55;28.00;;;15.20;99.90;;;;;;4974208;28;20477;-82
2021/06/30 05:51:43;;;;;;;43.15;26.75;;;15.20;99.90;;;;;;4957330;28;20568;-82
2021/06/30 05:54:15;;;;;;;44.85;28.83;;;15.20;99.90;;;;;;4942706;28;20047;-79
2021/06/30 05:56:42;;;;;;;45.88;27.25;;;15.20;99.90;;;;;;4952535;28;20106;-80
2021/06/30 05:59:08;;;;;;;44.63;25.05;;;15.30;99.90;;;;;;4968322;28;20050;-80
2021/06/30 06:01:35;;;;;;;44.45;27.67;;;15.30;99.90;;;;;;4984552;28;20105;-80
2021/06/30 06:04:07;;;;;;;40.92;25.52;;;15.30;99.90;;;;;;4979727;28;20054;-81
2021/06/30 06:06:39;;;;;;;44.78;25.95;;;15.30;99.90;;;;;;4988080;28;20086;-79
2021/06/30 06:09:06;;;;;;;45.33;26.23;;;15.30;99.90;;;;;;4958485;28;20485;-81
2021/06/30 06:11:37;;;;;;;39.67;24.60;;;15.30;99.90;;;;;;4970457;28;20043;-82
2021/06/30 06:14:07;;;;;;;43.22;25.65;;;15.40;99.90;;;;;;4967761;28;20039;-82
2021/06/30 06:16:38;;;;;;;37.85;22.85;;;15.40;99.90;;;;;;4986029;28;20693;-82
2021/06/30 06:19:10;;;;;;;42.03;24.50;;;15.30;99.90;;;;;;4970686;28;20108;-81
2021/06/30 06:21:42;;;;;;;36.15;22.23;;;15.50;99.90;;;;;;4943772;28;20077;-81
2021/06/30 06:24:09;;;;;;;36.30;22.00;;;15.50;99.90;;;;;;4954486;28;20054;-82
2021/06/30 06:26:35;;;;;;;34.50;20.35;;;15.60;99.90;;;;;;4979142;28;20070;-82
2021/06/30 06:29:08;;;;;;;28.23;19.08;;;15.70;99.90;;;;;;4947211;28;20047;-81
2021/06/30 06:31:41;;;;;;;29.52;19.15;;;15.80;99.90;;;;;;4988408;28;20042;-82
2021/06/30 06:34:08;;;;;;;28.33;17.05;;;15.70;99.90;;;;;;4984146;28;20117;-81
2021/06/30 06:36:35;;;;;;;24.00;16.13;;;15.80;99.90;;;;;;4979615;28;20810;-80
2021/06/30 06:39:04;;;;;;;21.52;15.38;;;15.70;99.90;;;;;;5001870;28;20038;-83
2021/06/30 06:41:31;;;;;;;24.60;15.88;;;15.80;99.90;;;;;;4963184;28;20053;-80
2021/06/30 06:44:03;;;;;;;19.65;14.90;;;15.90;99.90;;;;;;4977239;28;20062;-82
2021/06/30 06:46:40;;;;;;;23.52;16.90;;;15.80;99.90;;;;;;4972572;28;20482;-82
2021/06/30 06:49:12;;;;;;;28.75;18.55;;;15.90;99.90;;;;;;4953273;28;20062;-82
2021/06/30 06:51:44;;;;;;;21.23;15.52;;;16.10;99.90;;;;;;4977702;28;20116;-80
2021/06/30 06:54:11;;;;;;;22.60;16.35;;;16.10;99.90;;;;;;4976514;28;20065;-79
2021/06/30 06:56:38;;;;;;;19.42;14.45;;;16.20;99.90;;;;;;4975593;28;20525;-82
2021/06/30 06:59:10;;;;;;;21.17;15.07;;;16.30;99.90;;;;;;4956691;28;20061;-81
2021/06/30 07:01:37;;;;;;;21.55;15.52;;;16.30;99.90;;;;;;4974744;28;20052;-82
2021/06/30 07:04:09;;;;;;;17.77;15.20;;;16.30;99.90;;;;;;4975919;28;20453;-81
2021/06/30 07:06:36;;;;;;;22.08;17.13;;;16.30;99.90;;;;;;4970020;28;20054;-80
2021/06/30 07:09:03;;;;;;;18.38;14.90;;;16.30;99.90;;;;;;4988942;28;20054;-80
2021/06/30 07:11:36;;;;;;;20.52;13.93;;;16.40;99.90;;;;;;4969461;28;20089;-81
2021/06/30 07:14:03;;;;;;;16.38;13.05;;;16.50;99.90;;;;;;4970370;28;20046;-80
2021/06/30 07:16:30;;;;;;;20.17;13.10;;;16.50;99.90;;;;;;4975091;28;20053;-81
2021/06/30 07:19:12;;;;;;;14.10;12.40;;;16.60;99.90;;;;;;4951312;28;20061;-81
2021/06/30 07:21:44;;;;;;;14.13;12.63;;;16.70;99.90;;;;;;4947783;28;20070;-80
2021/06/30 07:24:16;;;;;;;14.50;11.77;;;16.80;99.90;;;;;;4954690;28;20049;-81
2021/06/30 07:26:48;;;;;;;15.05;13.05;;;16.60;99.90;;;;;;4974399;28;20567;-78
2021/06/30 07:29:20;;;;;;;14.23;11.82;;;16.70;99.90;;;;;;4958284;28;20053;-82
2021/06/30 07:31:55;;;;;;;15.10;12.90;;;16.60;99.90;;;;;;4957718;28;20512;-81
2021/06/30 07:34:27;;;;;;;;;;;16.60;99.90;;;;;;4959091;28;20070;-80
2021/06/30 07:36:54;;;;;;;15.50;13.35;;;16.80;99.90;;;;;;4959296;28;19922;-81
2021/06/30 07:39:26;;;;;;;14.45;13.00;;;16.90;99.90;;;;;;4990272;28;20042;-81
2021/06/30 07:41:53;;;;;;;15.45;12.10;;;17.10;99.90;;;;;;4973818;28;20066;-80
2021/06/30 07:44:25;;;;;;;13.98;12.18;;;17.20;99.90;;;;;;4956266;28;20070;-81
2021/06/30 07:46:52;;;;;;;15.70;12.13;;;17.40;99.90;;;;;;4956506;28;20043;-81
2021/06/30 07:49:22;;;;;;;11.55;10.40;;;17.40;99.90;;;;;;4939320;28;20113;-81
2021/06/30 07:51:50;;;;;;;13.85;12.38;;;17.40;99.90;;;;;;4970383;28;20070;-81
2021/06/30 07:54:18;;;;;;;13.57;12.07;;;17.40;99.90;;;;;;4960807;28;20286;-80
2021/06/30 07:56:45;;;;;;;14.25;11.52;;;17.60;99.90;;;;;;4959558;28;20203;-81
2021/06/30 07:59:13;;;;;;;17.40;11.48;;;17.70;99.90;;;;;;4954624;28;20410;-81
2021/06/30 08:01:40;;;;;;;12.25;10.85;;;17.80;99.90;;;;;;4988395;28;20128;-79
2021/06/30 08:04:10;;;;;;;12.98;10.80;;;17.80;99.90;;;;;;4958920;28;20086;-81
2021/06/30 08:06:37;;;;;;;12.55;11.35;;;17.90;99.90;;;;;;4947944;28;20050;-81
2021/06/30 08:09:05;;;;;;;13.85;11.98;;;17.80;99.90;;;;;;4970366;28;20066;-81
2021/06/30 08:11:53;;;;;;;13.13;11.73;;;17.80;99.90;;;;;;4963728;28;20046;-81
2021/06/30 08:14:23;;;;;;;11.00;9.52;;;17.90;99.90;;;;;;4993912;28;20050;-80
2021/06/30 08:16:50;;;;;;;13.45;10.23;;;18.00;99.90;;;;;;4988730;28;20069;-79
2021/06/30 08:19:17;;;;;;;9.75;8.85;;;18.10;99.90;;;;;;4960809;28;20050;-80
2021/06/30 08:21:44;;;;;;;9.40;8.45;;;17.90;99.90;;;;;;4972738;28;20050;-81
2021/06/30 08:24:11;;;;;;;9.82;8.82;;;17.80;99.90;;;;;;4935713;28;20548;-81
2021/06/30 08:26:39;;;;;;;10.93;9.65;;;17.90;99.90;;;;;;4955768;28;20134;-82
2021/06/30 08:29:05;;;;;;;10.13;9.20;;;17.90;99.90;;;;;;4961243;28;20050;-82
2021/06/30 08:31:32;;;;;;;10.43;9.50;;;17.90;99.90;;;;;;4968317;28;20046;-79
2021/06/30 08:34:00;;;;;;;10.43;9.27;;;17.90;99.90;;;;;;4974060;28;20058;-80
2021/06/30 08:36:27;;;;;;;11.38;10.10;;;18.00;99.90;;;;;;4960457;28;20314;-81
2021/06/30 08:38:53;;;;;;;14.38;10.05;;;17.90;99.90;;;;;;4948670;28;20114;-80
2021/06/30 08:41:23;;;;;;;11.20;10.05;;;18.00;99.90;;;;;;4991090;28;20061;-81
2021/06/30 08:43:50;;;;;;;11.05;10.05;;;17.90;99.90;;;;;;4966362;28;20051;-82
2021/06/30 08:46:21;;;;;;;12.05;10.63;;;17.90;99.90;;;;;;4949843;28;20748;-80
2021/06/30 08:48:55;;;;;;;11.68;10.57;;;18.00;99.90;;;;;;4983599;28;20142;-83
2021/06/30 08:51:25;;;;;;;11.63;10.53;;;18.10;99.90;;;;;;4939708;28;20046;-82
2021/06/30 08:53:55;;;;;;;13.45;12.15;;;18.00;99.90;;;;;;4978048;28;20302;-80
2021/06/30 08:56:32;;;;;;;13.48;12.13;;;18.00;99.90;;;;;;4988843;28;20050;-79
2021/06/30 08:59:01;;;;;;;12.32;10.60;;;17.80;99.90;;;;;;4975262;28;20050;-79
2021/06/30 09:01:29;;;;;;;11.95;10.85;;;18.00;99.90;;;;;;4973518;28;20070;-80
2021/06/30 09:03:57;;;;;;;13.55;12.23;;;18.40;99.90;;;;;;4963231;28;20057;-81
2021/06/30 09:06:25;;;;;;;12.32;11.30;;;18.70;99.90;;;;;;4960562;28;20081;-80
2021/06/30 09:08:52;;;;;;;12.52;11.52;;;18.90;99.90;;;;;;4976179;28;20174;-80
2021/06/30 09:11:26;;;;;;;13.23;11.82;;;19.20;99.90;;;;;;4977920;28;20428;-81
2021/06/30 09:14:20;;;;;;;14.38;12.98;;;19.50;99.90;;;;;;4986619;28;20046;-79
2021/06/30 09:17:06;;;;;;;14.57;13.13;;;19.70;99.90;;;;;;4966224;28;20042;-79
2021/06/30 09:19:46;;;;;;;13.75;12.48;;;19.90;99.90;;;;;;4979485;28;20090;-80
2021/06/30 09:22:13;;;;;;;13.90;12.80;;;19.90;99.90;;;;;;4959668;28;20042;-81
2021/06/30 09:24:40;;;;;;;15.75;14.45;;;19.90;99.90;;;;;;4975647;28;20281;-81
2021/06/30 09:27:09;;;;;;;15.73;14.25;;;19.80;99.90;;;;;;4958924;28;20413;-81
2021/06/30 09:29:41;;;;;;;13.80;12.50;;;19.90;99.90;;;;;;4974181;28;20577;-81
2021/06/30 09:32:17;;;;;;;14.80;13.80;;;20.10;99.90;;;;;;4970305;28;20081;-79
2021/06/30 09:34:44;;;;;;;13.98;12.98;;;20.10;99.90;;;;;;4974058;28;20101;-80
2021/06/30 09:37:11;;;;;;;13.98;13.07;;;20.40;99.90;;;;;;4954425;28;20061;-81
2021/06/30 09:39:55;;;;;;;14.52;13.43;;;20.30;99.90;;;;;;4963160;28;20066;-81
2021/06/30 09:42:30;;;;;;;14.02;12.95;;;20.30;99.90;;;;;;4979579;28;20568;-81
2021/06/30 09:45:18;;;;;;;15.40;14.20;;;20.00;99.90;;;;;;4976630;28;20050;-80
2021/06/30 09:47:49;;;;;;;16.45;14.65;;;19.90;99.90;;;;;;4959358;28;20094;-80
2021/06/30 09:50:17;;;;;;;15.88;14.57;;;19.60;99.90;;;;;;4948523;28;20046;-79
2021/06/30 09:52:46;;;;;;;15.05;13.75;;;19.50;99.90;;;;;;4983130;28;20089;-81
2021/06/30 09:55:26;;;;;;;14.68;13.25;;;19.70;99.90;;;;;;4945438;28;20055;-80
2021/06/30 09:57:54;;;;;;;15.27;13.93;;;19.90;99.90;;;;;;4986084;28;20830;-82
2021/06/30 10:00:24;;;;;;;14.73;13.38;;;19.90;99.90;;;;;;4986029;28;20097;-80
2021/06/30 10:02:51;;;;;;;16.17;14.88;;;20.10;99.90;;;;;;4942608;28;20194;-79
2021/06/30 10:05:47;;;;;;;16.00;14.70;;;20.30;99.90;;;;;;4960909;28;20055;-81
2021/06/30 10:08:15;;;;;;;15.80;14.40;;;20.30;99.90;;;;;;4958791;28;20425;-82
2021/06/30 10:10:46;;;;;;;15.35;14.05;;;20.30;99.90;;;;;;4971170;28;20043;-80
2021/06/30 10:13:15;;;;;;;14.52;13.32;;;20.30;99.90;;;;;;4974184;28;20038;-79
2021/06/30 10:15:42;;;;;;;15.45;14.25;;;20.30;99.90;;;;;;4973467;28;20046;-81
2021/06/30 10:18:09;;;;;;;15.90;14.60;;;20.20;99.90;;;;;;4976029;28;20054;-79
2021/06/30 10:20:41;;;;;;;15.25;14.00;;;20.30;99.90;;;;;;4974133;28;20063;-80
2021/06/30 10:23:08;;;;;;;14.55;13.40;;;20.40;99.90;;;;;;4962835;28;20215;-83
2021/06/30 10:25:35;;;;;;;14.40;13.35;;;20.40;99.90;;;;;;4976368;28;20819;-80
2021/06/30 10:28:03;;;;;;;14.50;13.30;;;20.60;99.90;;;;;;4972311;28;20668;-80
2021/06/30 10:30:30;;;;;;;13.70;12.70;;;20.90;99.90;;;;;;4970127;28;20268;-80
2021/06/30 10:33:00;;;;;;;14.93;13.93;;;20.90;99.90;;;;;;4972220;28;20051;-80
2021/06/30 10:35:32;;;;;;;15.80;14.65;;;20.60;99.90;;;;;;4958138;28;20046;-80
2021/06/30 10:38:00;;;;;;;16.40;15.25;;;20.60;99.90;;;;;;4988547;28;20333;-81
2021/06/30 10:40:32;;;;;;;17.15;15.95;;;20.60;99.90;;;;;;4959107;28;20047;-80
2021/06/30 10:43:13;;;;;;;16.25;15.02;;;20.50;99.90;;;;;;4973663;28;20042;-80
2021/06/30 10:45:41;;;;;;;16.45;15.35;;;20.70;99.90;;;;;;4953302;28;20050;-80
2021/06/30 10:48:10;;;;;;;18.50;17.05;;;20.60;99.90;;;;;;4974361;28;20047;-80
2021/06/30 10:50:43;;;;;;;17.15;15.85;;;20.80;99.90;;;;;;4961445;28;20050;-80
2021/06/30 10:53:11;;;;;;;16.40;15.30;;;20.80;99.90;;;;;;4973019;28;20085;-79
2021/06/30 10:55:40;;;;;;;16.70;15.50;;;20.90;99.90;;;;;;4975429;28;20054;-80
2021/06/30 10:58:10;;;;;;;19.20;17.83;;;20.80;99.90;;;;;;4971682;28;20046;-82
2021/06/30 11:00:54;;;;;;;18.35;16.88;;;20.90;99.90;;;;;;4956473;28;20035;-80
2021/06/30 11:03:29;;;;;;;18.30;16.92;;;21.10;99.90;;;;;;4982051;28;20044;-80
2021/06/30 11:06:16;;;;;;;19.45;17.95;;;21.30;99.90;;;;;;4959471;28;20067;-81
2021/06/30 11:08:46;;;;;;;19.30;17.92;;;21.40;99.90;;;;;;4994703;28;20042;-80
2021/06/30 11:11:17;;;;;;;17.92;16.73;;;21.50;99.90;;;;;;4982111;28;20065;-79
2021/06/30 11:14:13;;;;;;;20.33;18.83;;;21.60;99.90;;;;;;4982337;28;20053;-80
2021/06/30 11:16:40;;;;;;;;;;;21.80;99.90;;;;;;4949221;28;20050;-82
2021/06/30 11:19:07;;;;;;;18.00;16.70;;;21.90;99.90;;;;;;4974585;28;19957;-79
2021/06/30 11:21:51;;;;;;;17.98;16.63;;;21.90;99.90;;;;;;4963375;28;20039;-82
2021/06/30 11:24:38;;;;;;;16.67;15.57;;;21.90;99.90;;;;;;4962473;28;20058;-80
2021/06/30 11:27:26;;;;;;;16.67;15.48;;;21.90;99.90;;;;;;4982622;28;20051;-82
2021/06/30 11:30:08;;;;;;;17.48;16.17;;;21.90;99.90;;;;;;4971558;28;20058;-79
2021/06/30 11:32:35;;;;;;;17.15;15.93;;;22.10;99.90;;;;;;4983731;28;20081;-83
2021/06/30 11:35:22;;;;;;;17.10;15.93;;;22.10;99.90;;;;;;4957872;28;20047;-82
2021/06/30 11:38:12;;;;;;;17.75;16.20;;;22.00;99.90;;;;;;4972971;28;20113;-83
2021/06/30 11:40:51;;;;;;;18.38;17.10;;;21.90;99.90;;;;;;4969306;28;20046;-82
2021/06/30 11:43:26;;;;;;;16.77;15.57;;;21.90;99.90;;;;;;4974566;28;20120;-81
2021/06/30 11:46:01;;;;;;;;;;;21.90;99.90;;;;;;4965671;28;20077;-83
2021/06/30 11:48:31;;;;;;;14.82;13.85;;;21.60;99.90;;;;;;4994176;28;19922;-80
2021/06/30 11:51:21;;;;;;;15.40;14.40;;;21.30;99.90;;;;;;4944834;28;20045;-81
2021/06/30 11:53:49;;;;;;;15.60;14.50;;;21.30;99.90;;;;;;4991032;28;20312;-81
2021/06/30 11:56:27;;;;;;;15.68;14.68;;;21.40;99.90;;;;;;4986454;28;20050;-81
2021/06/30 11:58:56;;;;;;;16.35;15.23;;;21.50;99.90;;;;;;4958692;28;20061;-79
2021/06/30 12:01:34;;;;;;;16.25;15.05;;;21.50;99.90;;;;;;4976783;28;20068;-80
2021/06/30 12:04:11;;;;;;;15.20;14.20;;;21.60;99.90;;;;;;4975019;28;20046;-81
2021/06/30 12:06:40;;;;;;;15.68;14.57;;;21.60;99.90;;;;;;4959626;28;20054;-84
2021/06/30 12:09:14;;;;;;;15.57;14.40;;;21.50;99.90;;;;;;4969043;28;20044;-81
2021/06/30 12:12:03;;;;;;;17.60;16.33;;;21.40;99.90;;;;;;4958988;28;20061;-79
2021/06/30 12:14:36;;;;;;;17.85;16.45;;;21.40;99.90;;;;;;4953132;28;20055;-80
2021/06/30 12:17:04;;;;;;;16.73;15.63;;;21.50;99.90;;;;;;4988207;28;20165;-81
2021/06/30 12:19:45;;;;;;;16.45;15.25;;;21.70;99.90;;;;;;4974744;28;20489;-81
2021/06/30 12:22:22;;;;;;;15.52;14.50;;;21.80;99.90;;;;;;4995143;28;20129;-83
2021/06/30 12:25:01;;;;;;;15.77;14.57;;;21.80;99.90;;;;;;4975835;28;20046;-81
2021/06/30 12:27:34;;;;;;;14.48;13.38;;;21.70;99.90;;;;;;4973696;28;20051;-80
2021/06/30 12:30:06;;;;;;;14.73;13.68;;;21.60;99.90;;;;;;4959814;28;20149;-82
2021/06/30 12:32:35;;;;;;;16.67;15.48;;;21.50;99.90;;;;;;4975983;28;20056;-83
2021/06/30 12:35:05;;;;;;;15.35;14.25;;;21.30;99.90;;;;;;4945337;28;20043;-82
2021/06/30 12:37:33;;;;;;;16.13;14.85;;;21.30;99.90;;;;;;4972184;28;20458;-83
2021/06/30 12:40:08;;;;;;;15.35;14.07;;;21.40;99.90;;;;;;4960885;28;20042;-82
2021/06/30 12:43:15;;;;;;;15.27;14.02;;;21.40;99.90;;;;;;4943562;28;20053;-81
2021/06/30 12:45:48;;;;;;;16.13;15.02;;;21.60;99.90;;;;;;4961250;28;20289;-81
2021/06/30 12:48:24;;;;;;;16.25;15.05;;;21.60;99.90;;;;;;4983005;28;20050;-81